createdAt,value
2022-11-18T05:30:39.798Z,99.99
2022-11-18T05:31:39.750Z,99.99
2022-11-18T05:32:39.751Z,99.99
2022-11-18T05:33:39.737Z,99.99
2022-11-18T05:34:39.743Z,99.99
2022-11-18T05:35:39.725Z,99.99
2022-11-18T05:36:39.713Z,99.99
2022-11-18T05:37:39.706Z,99.99
2022-11-18T05:38:39.680Z,99.99
2022-11-18T05:39:39.682Z,99.99
2022-11-18T05:40:39.653Z,99.99
2022-11-18T05:41:39.647Z,99.99
2022-11-18T05:42:39.645Z,99.99
2022-11-18T05:43:39.645Z,99.99
2022-11-18T05:44:39.628Z,99.99
2022-11-18T05:45:39.598Z,99.99
2022-11-18T05:46:39.598Z,99.99
2022-11-18T05:47:39.580Z,99.99
2022-11-18T05:48:39.564Z,99.99
2022-11-18T05:49:39.598Z,99.99
2022-11-18T05:50:39.558Z,99.99
2022-11-18T05:51:39.560Z,99.99
2022-11-18T05:52:39.529Z,99.99
2022-11-18T05:53:39.534Z,99.99
2022-11-18T05:54:39.553Z,99.99
2022-11-18T05:55:39.532Z,99.99
2022-11-18T05:56:39.501Z,99.99
2022-11-18T05:57:39.468Z,99.99
2022-11-18T05:58:39.468Z,99.99
2022-11-18T05:59:39.490Z,99.99
2022-11-18T06:00:39.432Z,99.99
2022-11-18T06:01:39.443Z,99.99
2022-11-18T06:02:39.501Z,99.99
2022-11-18T06:03:39.413Z,99.99
2022-11-18T06:04:39.409Z,99.99
2022-11-18T06:05:39.388Z,99.99
2022-11-18T06:06:39.395Z,99.99
2022-11-18T06:07:39.411Z,99.99
2022-11-18T06:08:39.342Z,99.99
2022-11-18T06:09:39.367Z,99.99
2022-11-18T06:10:39.360Z,99.99
2022-11-18T06:11:39.320Z,99.99
2022-11-18T06:12:39.327Z,99.99
2022-11-18T06:13:39.319Z,99.99
2022-11-18T06:14:39.287Z,99.99
2022-11-18T06:15:39.286Z,99.99
2022-11-18T06:16:41.028Z,99.99
2022-11-18T06:17:39.270Z,99.99
2022-11-18T06:18:39.848Z,99.99
2022-11-18T06:19:39.252Z,99.99
2022-11-18T06:20:39.228Z,99.99
2022-11-18T06:21:39.209Z,99.99
2022-11-18T06:22:44.989Z,99.99
2022-11-18T06:23:40.185Z,99.99
2022-11-18T06:24:39.171Z,99.99
2022-11-18T06:25:39.165Z,99.99
2022-11-18T06:26:39.167Z,99.99
2022-11-18T06:27:39.143Z,99.99
2022-11-18T06:28:39.134Z,99.99
2022-11-18T06:29:39.136Z,99.99
2022-11-18T06:30:39.125Z,99.99
2022-11-18T06:31:39.111Z,99.99
2022-11-18T06:32:39.087Z,99.99
2022-11-18T06:33:39.098Z,99.99
2022-11-18T06:34:41.663Z,99.99
2022-11-18T06:35:39.090Z,99.99
2022-11-18T06:36:39.039Z,99.99
2022-11-18T06:37:39.038Z,99.99
2022-11-18T06:38:39.023Z,99.99
2022-11-18T06:39:39.062Z,99.99
2022-11-18T06:40:39.092Z,99.99
2022-11-18T06:41:38.994Z,99.99
2022-11-18T06:42:38.996Z,99.99
2022-11-18T06:43:38.971Z,99.99
2022-11-18T06:44:39.016Z,99.99
2022-11-18T06:45:38.953Z,99.99
2022-11-18T06:46:38.952Z,99.99
2022-11-18T06:47:38.921Z,99.99
2022-11-18T06:48:38.923Z,99.99
2022-11-18T06:49:38.898Z,99.99
2022-11-18T06:50:38.975Z,99.99
2022-11-18T06:51:38.877Z,99.99
2022-11-18T06:52:38.930Z,99.99
2022-11-18T06:53:38.871Z,99.99
2022-11-18T06:54:38.848Z,99.99
2022-11-18T06:55:38.846Z,99.99
2022-11-18T06:56:38.818Z,99.99
2022-11-18T06:57:38.847Z,99.99
2022-11-18T06:58:38.804Z,99.99
2022-11-18T06:59:38.790Z,99.99
2022-11-18T07:00:38.829Z,99.83
2022-11-18T07:01:38.795Z,99.99
2022-11-18T07:02:38.763Z,99.99
2022-11-18T07:03:38.773Z,99.57
2022-11-18T07:04:38.769Z,99.63
2022-11-18T07:05:38.747Z,99.77
2022-11-18T07:06:38.772Z,99.83
2022-11-18T07:07:41.967Z,99.98
2022-11-18T07:08:38.710Z,99.77
2022-11-18T07:09:38.688Z,99.77
2022-11-18T07:10:38.690Z,99.77
2022-11-18T07:11:38.661Z,99.77
2022-11-18T07:12:38.695Z,99.88
2022-11-18T07:13:43.338Z,99.99
2022-11-18T07:14:39.654Z,99.99
2022-11-18T07:15:38.636Z,99.99
2022-11-18T07:16:38.671Z,99.99
2022-11-18T07:17:38.586Z,99.99
2022-11-18T07:18:38.596Z,99.99
2022-11-18T07:19:38.581Z,99.99
2022-11-18T07:20:38.578Z,99.99
2022-11-18T07:21:38.600Z,99.99
2022-11-18T07:22:38.715Z,99.99
2022-11-18T07:23:38.564Z,99.98
2022-11-18T07:24:38.526Z,99.98
2022-11-18T07:25:44.027Z,99.99
2022-11-18T07:26:39.532Z,99.99
2022-11-18T07:27:38.484Z,99.99
2022-11-18T07:28:38.468Z,99.99
2022-11-18T07:29:38.493Z,99.99
2022-11-18T07:30:38.456Z,99.99
2022-11-18T07:31:38.487Z,99.99
2022-11-18T07:32:38.474Z,99.99
2022-11-18T07:33:38.412Z,99.99
2022-11-18T07:34:38.417Z,99.99
2022-11-18T07:35:38.418Z,99.99
2022-11-18T07:36:38.410Z,99.99
2022-11-18T07:37:38.455Z,99.99
2022-11-18T07:38:38.413Z,99.99
2022-11-18T07:39:38.363Z,99.99
2022-11-18T07:40:38.335Z,99.99
2022-11-18T07:41:38.374Z,99.99
2022-11-18T07:42:38.338Z,99.99
2022-11-18T07:43:38.314Z,99.99
2022-11-18T07:44:38.323Z,99.99
2022-11-18T07:45:38.401Z,99.99
2022-11-18T07:46:38.421Z,99.99
2022-11-18T07:47:38.285Z,99.99
2022-11-18T07:48:38.246Z,99.99
2022-11-18T07:49:38.240Z,99.99
2022-11-18T07:50:41.941Z,99.99
2022-11-18T07:51:39.242Z,99.99
2022-11-18T07:52:38.236Z,99.99
2022-11-18T07:53:38.214Z,99.99
2022-11-18T07:54:38.719Z,99.99
2022-11-18T07:55:38.174Z,99.99
2022-11-18T07:56:38.176Z,99.99
2022-11-18T07:57:38.174Z,99.99
2022-11-18T07:58:38.146Z,99.99
2022-11-18T07:59:38.185Z,99.99
2022-11-18T08:00:38.147Z,99.99
2022-11-18T08:01:38.176Z,99.99
2022-11-18T08:02:38.099Z,99.99
2022-11-18T08:03:38.105Z,99.99
2022-11-18T08:04:38.194Z,99.99
2022-11-18T08:05:38.147Z,99.99
2022-11-18T08:06:38.093Z,99.99
2022-11-18T08:09:58.516Z,99.99
2022-11-18T08:10:58.460Z,99.99
2022-11-18T08:11:58.483Z,99.99
2022-11-18T08:12:58.432Z,99.99
2022-11-18T08:13:58.471Z,99.99
2022-11-18T08:14:58.446Z,99.99
2022-11-18T08:15:58.405Z,99.99
2022-11-18T08:16:58.438Z,99.99
2022-11-18T08:17:58.385Z,99.99
2022-11-18T08:18:58.369Z,99.99
2022-11-18T08:19:58.387Z,99.99
2022-11-18T08:20:58.372Z,99.99
2022-11-18T08:21:58.382Z,99.99
2022-11-18T08:22:58.322Z,99.99
2022-11-18T08:23:58.320Z,99.99
2022-11-18T08:24:58.305Z,99.99
2022-11-18T08:25:58.323Z,99.99
2022-11-18T08:26:58.302Z,99.99
2022-11-18T08:27:58.308Z,99.99
2022-11-18T08:28:58.425Z,99.99
2022-11-18T08:29:58.256Z,99.99
2022-11-18T08:30:58.246Z,99.99
2022-11-18T08:31:58.229Z,99.99
2022-11-18T08:32:58.240Z,99.99
2022-11-18T08:33:58.210Z,99.99
2022-11-18T08:34:58.212Z,99.99
2022-11-18T08:35:58.213Z,99.99
2022-11-18T08:36:58.196Z,99.99
2022-11-18T08:37:58.164Z,99.99
2022-11-18T08:38:58.151Z,99.99
2022-11-18T08:39:58.156Z,99.99
2022-11-18T08:40:58.141Z,99.99
2022-11-18T08:41:58.168Z,99.99
2022-11-18T08:47:38.985Z,99.99
2022-11-18T08:48:38.945Z,99.99
2022-11-18T08:49:38.943Z,99.99
2022-11-18T08:50:38.921Z,99.99
2022-11-18T08:51:38.910Z,99.99
2022-11-18T08:52:38.940Z,99.99
2022-11-18T08:53:38.911Z,99.99
2022-11-18T08:54:38.897Z,99.99
2022-11-18T08:55:38.959Z,99.99
2022-11-18T08:56:38.860Z,99.99
2022-11-18T08:57:38.868Z,99.99
2022-11-18T08:58:38.838Z,99.99
2022-11-18T08:59:38.847Z,99.99
2022-11-18T09:00:38.837Z,99.99
2022-11-18T09:01:38.851Z,99.99
2022-11-18T09:02:38.791Z,99.99
2022-11-18T09:04:58.849Z,99.99
2022-11-18T09:05:49.774Z,99.99
2022-11-18T09:14:39.097Z,99.99
2022-11-18T09:15:12.997Z,99.99
2022-11-18T09:15:51.177Z,99.99
2022-11-18T09:16:50.151Z,99.99
2022-11-18T09:17:50.147Z,99.99
2022-11-18T09:18:50.147Z,99.99
2022-11-18T09:19:50.148Z,99.87
2022-11-18T09:20:50.148Z,99.99
2022-11-18T09:21:50.124Z,99.77
2022-11-18T09:22:50.084Z,99.82
2022-11-18T09:23:50.075Z,99.99
2022-11-18T09:24:50.100Z,99.37
2022-11-18T09:25:50.064Z,99.31
2022-11-18T09:26:50.087Z,98.70
2022-11-18T09:27:50.026Z,98.70
2022-11-18T09:28:50.068Z,98.60
2022-11-18T09:29:50.034Z,98.08
2022-11-18T09:30:49.997Z,98.08
2022-11-18T09:31:49.981Z,98.14
2022-11-18T09:32:50.024Z,98.24
2022-11-18T09:33:49.964Z,97.42
2022-11-18T09:34:49.958Z,97.99
2022-11-18T09:35:49.967Z,97.99
2022-11-18T09:36:49.942Z,96.87
2022-11-18T09:37:49.937Z,97.24
2022-11-18T09:38:52.928Z,96.83
2022-11-18T09:39:49.900Z,96.92
2022-11-18T09:40:49.890Z,96.06
2022-11-18T09:41:49.922Z,96.06
2022-11-18T09:42:49.880Z,95.96
2022-11-18T09:43:49.880Z,95.39
2022-11-18T09:44:49.841Z,94.94
2022-11-18T09:45:49.859Z,95.56
2022-11-18T09:46:49.820Z,95.65
2022-11-18T09:47:49.881Z,95.96
2022-11-18T09:48:49.805Z,96.02
2022-11-18T09:49:49.803Z,95.92
2022-11-18T09:50:50.852Z,95.00
2022-11-18T09:51:49.776Z,95.20
2022-11-18T09:52:49.782Z,94.85
2022-11-18T09:53:49.777Z,94.95
2022-11-18T09:54:49.738Z,94.95
2022-11-18T09:55:49.749Z,94.14
2022-11-18T09:56:49.782Z,93.77
2022-11-18T09:57:49.703Z,94.08
2022-11-18T09:58:49.688Z,94.02
2022-11-18T09:59:49.720Z,93.98
2022-11-18T10:00:49.678Z,93.67
2022-11-18T10:01:49.786Z,94.18
2022-11-18T10:02:49.649Z,94.38
2022-11-18T10:03:49.637Z,93.16
2022-11-18T10:04:49.626Z,92.90
2022-11-18T10:05:49.664Z,93.31
2022-11-18T10:06:49.624Z,93.31
2022-11-18T10:07:49.588Z,93.82
2022-11-18T10:08:49.608Z,94.12
2022-11-18T10:09:49.572Z,94.43
2022-11-18T10:10:49.558Z,94.02
2022-11-18T10:11:52.103Z,93.86
2022-11-18T10:12:49.539Z,94.33
2022-11-18T10:13:49.544Z,94.02
2022-11-18T10:14:49.542Z,94.43
2022-11-18T10:15:49.501Z,94.02
2022-11-18T10:16:51.760Z,94.43
2022-11-18T10:17:50.581Z,93.86
2022-11-18T10:19:04.840Z,93.96
2022-11-18T10:19:50.498Z,94.37
2022-11-18T10:20:49.455Z,95.19
2022-11-18T10:21:49.495Z,95.25
2022-11-18T10:22:49.428Z,94.90
2022-11-18T10:23:49.456Z,95.16
2022-11-18T10:24:49.428Z,94.04
2022-11-18T10:25:49.438Z,93.52
2022-11-18T10:26:49.419Z,93.38
2022-11-18T10:27:49.404Z,93.07
2022-11-18T10:28:49.360Z,93.07
2022-11-18T10:29:49.372Z,91.96
2022-11-18T10:30:49.362Z,92.42
2022-11-18T10:31:49.361Z,91.96
2022-11-18T10:32:49.339Z,91.96
2022-11-18T10:33:49.366Z,92.50
2022-11-18T10:34:49.307Z,93.32
2022-11-18T10:35:49.303Z,93.12
2022-11-18T10:36:49.275Z,93.43
2022-11-18T10:38:09.555Z,92.77
2022-11-18T10:38:50.447Z,93.07
2022-11-18T10:39:49.243Z,92.97
2022-11-18T10:40:49.251Z,92.72
2022-11-18T10:41:49.241Z,92.26
2022-11-18T10:42:49.230Z,91.50
2022-11-18T10:43:49.215Z,91.61
2022-11-18T10:44:49.279Z,92.07
2022-11-18T10:45:49.188Z,91.46
2022-11-18T10:46:49.207Z,90.24
2022-11-18T10:47:49.157Z,90.14
2022-11-18T10:48:49.145Z,89.63
2022-11-18T10:49:49.212Z,89.32
2022-11-18T10:50:54.726Z,87.79
2022-11-18T10:51:50.176Z,85.35
2022-11-18T10:52:49.103Z,85.45
2022-11-18T10:53:49.107Z,86.77
2022-11-18T10:54:49.099Z,86.68
2022-11-18T10:55:49.107Z,88.71
2022-11-18T10:56:52.252Z,87.79
2022-11-18T10:57:50.047Z,87.59
2022-11-18T10:58:49.038Z,86.88
2022-11-18T10:59:49.048Z,84.03
2022-11-18T11:00:49.033Z,84.64
2022-11-18T11:01:49.127Z,84.33
2022-11-18T11:02:49.013Z,84.33
2022-11-18T11:03:49.019Z,84.74
2022-11-18T11:04:48.981Z,84.12
2022-11-18T11:05:48.988Z,82.74
2022-11-18T11:06:48.989Z,83.56
2022-11-18T11:07:48.964Z,83.35
2022-11-18T11:08:48.943Z,84.78
2022-11-18T11:09:48.917Z,85.28
2022-11-18T11:10:52.645Z,84.58
2022-11-18T11:11:48.898Z,83.56
2022-11-18T11:12:48.940Z,84.72
2022-11-18T11:13:48.896Z,85.08
2022-11-18T11:14:48.879Z,85.60
2022-11-18T11:15:48.876Z,85.28
2022-11-18T11:16:48.876Z,85.08
2022-11-18T11:17:48.920Z,83.39
2022-11-18T11:18:48.845Z,83.09
2022-11-18T11:19:48.843Z,83.25
2022-11-18T11:20:48.802Z,82.94
2022-11-18T11:21:48.831Z,82.64
2022-11-18T11:22:48.793Z,83.45
2022-11-18T11:23:48.795Z,84.58
2022-11-18T11:24:48.822Z,83.80
2022-11-18T11:28:49.729Z,83.56
2022-11-18T11:29:48.706Z,82.94
2022-11-18T11:30:48.697Z,82.74
2022-11-18T11:31:48.693Z,81.88
2022-11-18T11:32:48.677Z,81.68
2022-11-18T11:33:48.658Z,82.09
2022-11-18T11:34:48.665Z,82.90
2022-11-18T11:35:48.635Z,83.82
2022-11-18T11:36:48.639Z,81.38
2022-11-18T11:37:48.628Z,81.27
2022-11-18T11:38:48.622Z,82.15
2022-11-18T11:39:48.593Z,78.83
2022-11-18T11:40:48.587Z,78.63
2022-11-18T11:41:48.566Z,79.20
2022-11-18T11:42:48.583Z,77.78
2022-11-18T11:43:48.571Z,78.42
2022-11-18T11:44:48.563Z,77.81
2022-11-18T11:45:48.548Z,77.81
2022-11-18T11:46:48.519Z,78.22
2022-11-18T11:47:48.522Z,77.40
2022-11-18T11:48:48.527Z,77.30
2022-11-18T11:49:48.484Z,77.51
2022-11-18T11:50:54.865Z,79.03
2022-11-18T11:51:49.484Z,78.53
2022-11-18T11:52:48.477Z,78.63
2022-11-18T11:53:48.468Z,78.16
2022-11-18T11:54:48.448Z,79.58
2022-11-18T11:55:48.419Z,79.34
2022-11-18T11:56:48.410Z,78.42
2022-11-18T11:57:48.401Z,78.36
2022-11-18T11:58:48.401Z,77.71
2022-11-18T11:59:48.398Z,78.02
2022-11-18T12:00:48.382Z,78.32
2022-11-18T12:01:48.353Z,77.71
2022-11-18T12:02:48.375Z,78.42
2022-11-18T12:03:51.888Z,79.48
2022-11-18T12:04:48.343Z,79.03
2022-11-18T12:05:48.309Z,78.63
2022-11-18T12:06:48.312Z,78.56
2022-11-18T12:07:48.366Z,77.95
2022-11-18T12:08:48.309Z,79.68
2022-11-18T12:09:48.297Z,79.79
2022-11-18T12:10:48.261Z,78.16
2022-11-18T12:11:48.246Z,79.07
2022-11-18T12:12:48.236Z,78.70
2022-11-18T12:13:48.236Z,79.72
2022-11-18T12:14:48.253Z,79.62
2022-11-18T12:15:48.203Z,79.58
2022-11-18T12:16:48.190Z,79.58
2022-11-18T12:17:48.181Z,80.09
2022-11-18T12:18:48.174Z,80.19
2022-11-18T12:19:48.181Z,79.68
2022-11-18T12:20:48.263Z,78.97
2022-11-18T12:21:48.141Z,77.27
2022-11-18T12:22:48.130Z,77.17
2022-11-18T12:23:48.132Z,78.53
2022-11-18T12:24:48.107Z,79.96
2022-11-18T12:25:48.112Z,81.59
2022-11-18T12:26:48.110Z,82.68
2022-11-18T12:27:48.082Z,83.70
2022-11-18T12:28:48.075Z,83.49
2022-11-18T12:29:48.049Z,82.07
2022-11-18T12:30:48.034Z,81.90
2022-11-18T12:31:48.023Z,81.70
2022-11-18T12:32:48.043Z,81.45
2022-11-18T12:33:48.005Z,81.96
2022-11-18T12:34:48.014Z,81.15
2022-11-18T12:35:47.976Z,79.82
2022-11-18T12:36:47.990Z,80.64
2022-11-18T12:37:47.953Z,81.45
2022-11-18T12:38:47.951Z,81.86
2022-11-18T12:39:47.955Z,81.76
2022-11-18T12:40:52.754Z,80.43
2022-11-18T12:41:48.948Z,80.09
2022-11-18T12:42:47.906Z,79.41
2022-11-18T12:43:47.918Z,80.13
2022-11-18T12:44:47.899Z,80.84
2022-11-18T12:45:47.898Z,80.02
2022-11-18T12:46:47.882Z,80.43
2022-11-18T12:47:47.842Z,80.74
2022-11-18T12:48:47.832Z,81.45
2022-11-18T12:49:47.847Z,81.04
2022-11-18T12:50:47.872Z,81.25
2022-11-18T12:51:47.812Z,80.74
2022-11-18T12:52:47.788Z,79.93
2022-11-18T12:53:47.833Z,80.13
2022-11-18T12:54:47.771Z,81.04
2022-11-18T12:55:47.774Z,81.35
2022-11-18T12:56:47.787Z,81.15
2022-11-18T12:57:47.755Z,80.84
2022-11-18T12:58:47.742Z,81.11
2022-11-18T12:59:47.710Z,80.74
2022-11-18T13:00:47.781Z,82.07
2022-11-18T13:01:47.689Z,79.72
2022-11-18T13:02:47.707Z,80.64
2022-11-18T13:03:47.672Z,80.74
2022-11-18T13:04:53.033Z,79.66
2022-11-18T13:05:48.668Z,79.93
2022-11-18T13:06:47.649Z,80.02
2022-11-18T13:07:47.628Z,80.33
2022-11-18T13:08:47.627Z,80.64
2022-11-18T13:09:47.654Z,79.52
2022-11-18T13:10:50.481Z,80.54
2022-11-18T13:11:48.657Z,80.02
2022-11-18T13:12:47.569Z,80.13
2022-11-18T13:13:47.580Z,79.52
2022-11-18T13:14:47.550Z,78.50
2022-11-18T13:15:47.548Z,77.27
2022-11-18T13:16:47.578Z,77.98
2022-11-18T13:17:47.540Z,78.39
2022-11-18T13:18:47.521Z,78.80
2022-11-18T13:19:47.499Z,79.21
2022-11-18T13:20:47.535Z,78.60
2022-11-18T13:21:47.468Z,77.58
2022-11-18T13:22:47.480Z,78.19
2022-11-18T13:23:47.463Z,79.62
2022-11-18T13:24:47.438Z,78.70
2022-11-18T13:25:47.434Z,78.50
2022-11-18T13:26:47.420Z,79.41
2022-11-18T13:27:47.418Z,78.50
2022-11-18T13:28:47.399Z,78.33
2022-11-18T13:29:52.651Z,78.74
2022-11-18T13:30:48.387Z,79.45
2022-11-18T13:31:47.391Z,79.75
2022-11-18T13:32:47.361Z,78.43
2022-11-18T13:33:47.363Z,79.55
2022-11-18T13:34:47.337Z,79.66
2022-11-18T13:35:47.330Z,79.45
2022-11-18T13:36:47.345Z,79.45
2022-11-18T13:37:47.295Z,79.55
2022-11-18T13:38:47.282Z,79.66
2022-11-18T13:39:47.284Z,79.86
2022-11-18T13:40:47.283Z,79.14
2022-11-18T13:41:47.249Z,79.55
2022-11-18T13:42:47.248Z,79.86
2022-11-18T13:43:51.500Z,79.86
2022-11-18T13:44:48.230Z,80.47
2022-11-18T13:45:47.232Z,79.55
2022-11-18T13:46:47.194Z,79.75
2022-11-18T13:47:47.182Z,78.64
2022-11-18T13:48:47.186Z,80.07
2022-11-18T13:49:50.275Z,78.43
2022-11-18T13:50:47.165Z,79.82
2022-11-18T13:51:47.143Z,79.14
2022-11-18T13:52:47.140Z,79.14
2022-11-18T13:53:47.128Z,78.30
2022-11-18T13:54:47.102Z,77.72
2022-11-18T13:55:47.109Z,78.53
2022-11-18T13:56:47.110Z,78.23
2022-11-18T13:57:47.071Z,77.92
2022-11-18T13:59:48.128Z,78.84
2022-11-18T14:00:47.131Z,79.35
2022-11-18T14:01:47.052Z,79.93
2022-11-18T14:02:47.067Z,77.72
2022-11-18T14:03:47.024Z,78.74
2022-11-18T14:04:46.997Z,79.75
2022-11-18T14:05:46.993Z,77.98
2022-11-18T14:06:46.982Z,78.12
2022-11-18T14:07:47.043Z,78.30
2022-11-18T14:08:46.989Z,78.12
2022-11-18T14:09:47.002Z,79.25
2022-11-18T14:10:46.935Z,80.13
2022-11-18T14:11:46.920Z,77.72
2022-11-18T14:12:46.916Z,78.94
2022-11-18T14:13:46.920Z,78.84
2022-11-18T14:14:46.892Z,79.14
2022-11-18T14:15:46.880Z,78.64
2022-11-18T14:16:46.884Z,77.62
2022-11-18T14:17:46.895Z,77.41
2022-11-18T14:18:46.855Z,77.41
2022-11-18T14:19:46.836Z,78.23
2022-11-18T14:20:46.821Z,79.96
2022-11-18T14:21:46.815Z,79.52
2022-11-18T14:22:47.114Z,79.96
2022-11-18T14:23:46.788Z,80.64
2022-11-18T14:24:46.788Z,79.35
2022-11-18T14:25:46.776Z,79.45
2022-11-18T14:26:46.763Z,79.35
2022-11-18T14:27:46.771Z,78.64
2022-11-18T14:28:46.751Z,79.66
2022-11-18T14:29:46.772Z,79.52
2022-11-18T14:30:46.713Z,79.55
2022-11-18T14:31:46.705Z,77.31
2022-11-18T14:32:46.720Z,79.96
2022-11-18T14:33:46.714Z,78.53
2022-11-18T14:34:46.662Z,78.74
2022-11-18T14:35:46.652Z,79.14
2022-11-18T14:36:46.644Z,79.25
2022-11-18T14:37:46.631Z,79.75
2022-11-18T14:39:47.618Z,79.66
2022-11-18T14:40:46.611Z,80.37
2022-11-18T14:41:46.604Z,80.57
2022-11-18T14:42:46.582Z,80.88
2022-11-18T14:43:46.566Z,81.96
2022-11-18T14:44:46.573Z,82.82
2022-11-18T14:45:46.568Z,83.73
2022-11-18T14:46:46.550Z,84.45
2022-11-18T14:47:46.520Z,84.96
2022-11-18T14:48:46.502Z,82.31
2022-11-18T14:49:46.565Z,82.41
2022-11-18T14:50:46.494Z,83.84
2022-11-18T14:51:46.520Z,83.84
2022-11-18T14:52:46.467Z,82.41
2022-11-18T14:53:46.458Z,82.21
2022-11-18T14:54:46.441Z,82.55
2022-11-18T14:55:46.451Z,82.75
2022-11-18T14:56:46.416Z,83.67
2022-11-18T14:57:46.431Z,83.47
2022-11-18T14:58:46.400Z,84.28
2022-11-18T14:59:46.476Z,84.80
2022-11-18T15:00:46.434Z,85.30
2022-11-18T15:01:46.470Z,85.61
2022-11-18T15:02:46.413Z,85.71
2022-11-18T15:03:46.355Z,86.12
2022-11-18T15:04:46.352Z,86.73
2022-11-18T15:05:46.373Z,86.94
2022-11-18T15:06:46.310Z,87.14
2022-11-18T15:07:46.448Z,87.18
2022-11-18T15:08:46.291Z,86.98
2022-11-18T15:09:46.346Z,86.77
2022-11-18T15:10:46.288Z,86.98
2022-11-18T15:11:46.259Z,87.18
2022-11-18T15:12:46.250Z,87.79
2022-11-18T15:13:46.233Z,88.10
2022-11-18T15:14:46.250Z,88.45
2022-11-18T15:15:46.233Z,89.06
2022-11-18T15:16:46.235Z,88.41
2022-11-18T15:17:48.523Z,88.65
2022-11-18T15:18:47.180Z,88.65
2022-11-18T15:19:46.170Z,89.17
2022-11-18T15:20:46.151Z,88.65
2022-11-18T15:21:46.162Z,89.98
2022-11-18T15:22:46.186Z,89.78
2022-11-18T15:23:46.128Z,90.39
2022-11-18T15:24:46.109Z,90.39
2022-11-18T15:25:46.125Z,90.74
2022-11-18T15:26:46.104Z,90.84
2022-11-18T15:27:46.077Z,91.20
2022-11-18T15:28:46.081Z,91.82
2022-11-18T15:29:46.086Z,91.66
2022-11-18T15:30:46.047Z,91.66
2022-11-18T15:31:46.055Z,91.86
2022-11-18T15:32:46.022Z,90.94
2022-11-18T15:33:46.013Z,90.33
2022-11-18T15:34:46.000Z,90.74
2022-11-18T15:35:46.027Z,90.74
2022-11-18T15:36:46.017Z,91.15
2022-11-18T15:37:46.006Z,91.15
2022-11-18T15:38:45.959Z,90.84
2022-11-18T15:39:45.954Z,90.74
2022-11-18T15:40:45.936Z,90.43
2022-11-18T15:41:45.947Z,90.84
2022-11-18T15:42:51.715Z,91.46
2022-11-18T15:43:46.924Z,90.84
2022-11-18T15:44:45.889Z,91.05
2022-11-18T15:45:45.896Z,90.64
2022-11-18T15:46:45.878Z,90.78
2022-11-18T15:47:45.888Z,90.88
2022-11-18T15:48:45.879Z,90.99
2022-11-18T15:49:45.858Z,91.50
2022-11-18T15:50:45.830Z,91.91
2022-11-18T15:51:45.841Z,91.19
2022-11-18T15:52:45.801Z,90.88
2022-11-18T15:53:45.811Z,91.19
2022-11-18T15:54:45.785Z,90.99
2022-11-18T15:55:45.785Z,90.99
2022-11-18T15:56:45.783Z,91.91
2022-11-18T15:57:45.752Z,91.60
2022-11-18T15:58:45.739Z,91.91
2022-11-18T15:59:45.728Z,91.80
2022-11-18T16:00:45.791Z,92.01
2022-11-18T16:01:45.716Z,91.91
2022-11-18T16:02:45.698Z,91.70
2022-11-18T16:03:45.687Z,91.54
2022-11-18T16:04:45.694Z,91.74
2022-11-18T16:05:45.670Z,92.05
2022-11-18T16:06:45.651Z,91.54
2022-11-18T16:07:45.699Z,91.85
2022-11-18T16:08:45.627Z,91.64
2022-11-18T16:09:45.671Z,91.44
2022-11-18T16:10:45.602Z,91.64
2022-11-18T16:11:45.598Z,92.36
2022-11-18T16:12:45.585Z,92.25
2022-11-18T16:13:45.593Z,92.25
2022-11-18T16:14:45.582Z,92.56
2022-11-18T16:15:45.572Z,92.15
2022-11-18T16:16:45.542Z,91.85
2022-11-18T16:17:45.547Z,91.54
2022-11-18T16:18:45.522Z,91.17
2022-11-18T16:19:45.509Z,92.19
2022-11-18T16:20:45.510Z,92.40
2022-11-18T16:21:45.507Z,92.30
2022-11-18T16:22:45.474Z,92.25
2022-11-18T16:23:45.472Z,92.87
2022-11-18T16:24:48.504Z,92.15
2022-11-18T16:25:45.464Z,92.60
2022-11-18T16:26:45.492Z,93.48
2022-11-18T16:27:45.439Z,93.28
2022-11-18T16:28:45.430Z,93.32
2022-11-18T16:29:45.395Z,93.01
2022-11-18T16:30:45.384Z,93.43
2022-11-18T16:31:45.382Z,93.22
2022-11-18T16:32:45.381Z,92.91
2022-11-18T16:33:45.361Z,93.63
2022-11-18T16:34:45.362Z,93.84
2022-11-18T16:35:45.334Z,93.93
2022-11-18T16:36:45.318Z,93.22
2022-11-18T16:37:45.318Z,92.91
2022-11-18T16:38:45.325Z,93.84
2022-11-18T16:39:45.309Z,93.63
2022-11-18T16:40:45.293Z,93.32
2022-11-18T16:41:45.336Z,93.43
2022-11-18T16:42:45.255Z,93.84
2022-11-18T16:43:45.250Z,93.63
2022-11-18T16:44:45.245Z,93.63
2022-11-18T16:45:45.248Z,93.22
2022-11-18T16:46:45.247Z,94.04
2022-11-18T16:47:45.204Z,93.43
2022-11-18T16:48:45.187Z,93.52
2022-11-18T16:49:45.178Z,93.32
2022-11-18T16:50:45.197Z,94.24
2022-11-18T16:51:45.163Z,93.63
2022-11-18T16:52:45.166Z,93.63
2022-11-18T16:53:45.135Z,93.52
2022-11-18T16:54:46.002Z,93.52
2022-11-18T16:55:45.117Z,93.84
2022-11-18T16:56:45.124Z,93.52
2022-11-18T16:57:45.254Z,93.98
2022-11-18T16:58:45.083Z,93.84
2022-11-18T16:59:45.071Z,93.52
2022-11-18T17:01:16.695Z,93.67
2022-11-18T17:01:46.193Z,93.73
2022-11-18T17:02:45.136Z,93.63
2022-11-18T17:03:45.028Z,93.52
2022-11-18T17:04:45.015Z,93.47
2022-11-18T17:05:45.019Z,93.57
2022-11-18T17:06:45.014Z,93.67
2022-11-18T17:07:45.100Z,93.77
2022-11-18T17:08:44.991Z,93.47
2022-11-18T17:09:44.994Z,93.67
2022-11-18T17:10:44.945Z,93.37
2022-11-18T17:11:44.941Z,93.88
2022-11-18T17:12:44.956Z,94.29
2022-11-18T17:17:17.022Z,93.16
2022-11-18T17:18:16.999Z,94.08
2022-11-18T17:19:17.227Z,93.67
2022-11-18T17:20:16.963Z,93.77
2022-11-18T17:21:16.946Z,93.67
2022-11-18T17:22:16.949Z,93.20
2022-11-18T17:23:16.934Z,93.26
2022-11-18T17:24:17.257Z,94.18
2022-11-18T17:25:16.926Z,93.37
2022-11-18T17:26:16.895Z,93.88
2022-11-18T17:27:16.876Z,93.47
2022-11-18T17:28:16.863Z,93.77
2022-11-18T17:29:17.310Z,93.77
2022-11-18T17:30:16.858Z,93.57
2022-11-18T17:31:16.829Z,93.37
2022-11-18T17:32:16.819Z,93.67
2022-11-18T17:33:16.821Z,93.62
2022-11-18T17:34:17.239Z,93.47
2022-11-18T17:35:16.799Z,93.51
2022-11-18T17:36:16.901Z,93.37
2022-11-18T17:37:16.871Z,93.37
2022-11-18T17:38:16.764Z,92.85
2022-11-18T17:39:17.150Z,92.34
2022-11-18T17:40:16.749Z,92.65
2022-11-18T17:41:16.780Z,91.93
2022-11-18T17:42:16.836Z,91.87
2022-11-18T17:43:16.721Z,91.31
2022-11-18T17:44:17.191Z,91.73
2022-11-18T17:45:16.754Z,90.95
2022-11-18T17:46:16.660Z,90.60
2022-11-18T17:47:16.712Z,89.92
2022-11-18T17:48:16.644Z,88.90
2022-11-18T17:49:16.657Z,88.90
2022-11-18T17:50:16.670Z,89.51
2022-11-18T17:51:16.713Z,89.83
2022-11-18T17:52:16.603Z,88.90
2022-11-18T17:53:16.586Z,89.31
2022-11-18T17:54:16.745Z,88.80
2022-11-18T17:55:16.572Z,89.62
2022-11-18T17:56:16.575Z,89.21
2022-11-18T17:57:16.613Z,88.59
2022-11-18T17:58:16.597Z,88.08
2022-11-18T17:59:16.593Z,88.29
2022-11-18T18:00:16.535Z,88.80
2022-11-18T18:01:16.584Z,89.11
2022-11-18T18:02:16.492Z,89.21
2022-11-18T18:03:16.488Z,88.59
2022-11-18T18:04:16.898Z,89.42
2022-11-18T18:05:16.522Z,88.59
2022-11-18T18:06:16.459Z,89.21
2022-11-18T18:07:16.481Z,89.21
2022-11-18T18:08:16.430Z,89.51
2022-11-18T18:09:16.431Z,90.03
2022-11-18T18:10:16.429Z,89.92
2022-11-18T18:11:16.414Z,90.03
2022-11-18T18:12:16.387Z,90.37
2022-11-18T18:13:16.382Z,89.83
2022-11-18T18:14:16.779Z,90.48
2022-11-18T18:15:16.368Z,90.69
2022-11-18T18:16:16.339Z,91.20
2022-11-18T18:17:16.344Z,90.89
2022-11-18T18:18:16.326Z,90.48
2022-11-18T18:19:16.304Z,90.79
2022-11-18T18:20:16.303Z,89.04
2022-11-18T18:21:16.301Z,89.36
2022-11-18T18:22:16.290Z,89.15
2022-11-18T18:23:16.263Z,88.43
2022-11-18T18:24:16.736Z,88.23
2022-11-18T18:25:16.261Z,88.47
2022-11-18T18:26:16.240Z,88.43
2022-11-18T18:27:16.230Z,88.53
2022-11-18T18:28:16.215Z,89.56
2022-11-18T18:29:16.201Z,89.29
2022-11-18T18:30:16.203Z,88.94
2022-11-18T18:31:16.176Z,90.28
2022-11-18T18:32:16.162Z,89.97
2022-11-18T18:33:16.156Z,88.68
2022-11-18T18:34:16.635Z,89.09
2022-11-18T18:35:16.133Z,89.19
2022-11-18T18:36:16.149Z,89.39
2022-11-18T18:37:16.129Z,90.32
2022-11-18T18:38:16.274Z,89.39
2022-11-18T18:39:16.110Z,89.39
2022-11-18T18:40:16.088Z,89.45
2022-11-18T18:41:16.077Z,89.90
2022-11-18T18:42:16.062Z,89.97
2022-11-18T18:43:16.047Z,90.01
2022-11-18T18:44:18.792Z,89.50
2022-11-18T18:45:16.049Z,89.60
2022-11-18T18:46:16.018Z,88.78